Time;durP1;ratioP1;P1;durP2;ratioP2;P2;SDS_P1;SDS_P2;PMS_P1;PMS_P2;Temp;Humidity;BMP_temperature;BMP_pressure;BME280_temperature;BME280_humidity;BME280_pressure;Samples;Min_cycle;Max_cycle;Signal;HPM_P1;HPM_P2
2023/09/22 00:00:25;;;;;;;2.10;0.70;;;17.90;99.90;;;;;;5013665;28;20426;-72
2023/09/22 00:02:50;;;;;;;3.63;1.00;;;17.90;99.90;;;;;;5013374;28;20184;-69
2023/09/22 00:05:16;;;;;;;2.07;1.07;;;17.80;99.90;;;;;;5013311;28;20230;-70
2023/09/22 00:07:43;;;;;;;1.30;0.70;;;17.70;99.90;;;;;;5013607;28;20176;-71
2023/09/22 00:10:09;;;;;;;1.23;1.00;;;17.70;99.90;;;;;;5013007;28;20176;-71
2023/09/22 00:12:34;;;;;;;1.80;0.80;;;17.70;99.90;;;;;;5013455;28;20422;-70
2023/09/22 00:15:01;;;;;;;1.23;0.70;;;17.60;99.90;;;;;;5013158;28;20407;-69
2023/09/22 00:17:27;;;;;;;1.40;0.83;;;17.50;99.90;;;;;;5011906;28;20200;-70
2023/09/22 00:19:53;;;;;;;1.23;0.87;;;17.50;99.90;;;;;;5013284;28;20481;-70
2023/09/22 00:22:19;;;;;;;1.33;0.80;;;17.40;99.90;;;;;;5013064;28;20446;-70
2023/09/22 00:24:44;;;;;;;1.43;0.80;;;17.30;99.90;;;;;;5013410;28;20514;-70
2023/09/22 00:27:10;;;;;;;1.80;1.03;;;17.20;99.90;;;;;;5014008;28;20163;-70
2023/09/22 00:29:36;;;;;;;0.90;0.80;;;17.30;99.90;;;;;;5013751;28;20219;-70
2023/09/22 00:32:03;;;;;;;2.43;1.00;;;17.30;99.90;;;;;;5013295;28;20180;-69
2023/09/22 00:34:30;;;;;;;4.60;0.80;;;17.30;99.90;;;;;;5012996;28;20418;-69
2023/09/22 00:36:56;;;;;;;1.50;1.10;;;17.30;99.90;;;;;;5011737;28;20410;-70
2023/09/22 00:39:22;;;;;;;1.47;0.90;;;17.20;99.90;;;;;;5013314;28;20430;-70
2023/09/22 00:41:47;;;;;;;1.30;0.80;;;17.10;99.90;;;;;;5013262;28;20303;-70
2023/09/22 00:44:13;;;;;;;3.90;1.00;;;17.10;99.90;;;;;;5013180;28;20541;-70
2023/09/22 00:46:39;;;;;;;1.30;0.70;;;16.90;99.90;;;;;;5012632;28;20672;-70
2023/09/22 00:49:06;;;;;;;3.43;0.87;;;17.00;99.90;;;;;;5012997;28;20223;-70
2023/09/22 00:51:33;;;;;;;4.60;1.03;;;17.00;99.90;;;;;;5013017;28;20176;-70
2023/09/22 00:53:59;;;;;;;2.77;1.07;;;16.90;99.90;;;;;;5013382;28;20418;-70
2023/09/22 00:56:25;;;;;;;1.80;1.00;;;16.90;99.90;;;;;;5012811;28;20461;-70
2023/09/22 00:58:52;;;;;;;1.43;1.07;;;16.60;99.90;;;;;;5012884;28;20427;-69
2023/09/22 01:01:20;;;;;;;1.20;0.80;;;16.70;99.90;;;;;;5012932;28;20411;-69
2023/09/22 01:03:48;;;;;;;1.47;1.00;;;16.70;99.90;;;;;;5013245;28;20524;-69
2023/09/22 01:06:14;;;;;;;1.23;0.90;;;16.70;99.90;;;;;;5012991;28;20426;-69
2023/09/22 01:08:40;;;;;;;1.80;1.50;;;16.70;99.90;;;;;;5012648;28;20425;-71
2023/09/22 01:11:05;;;;;;;2.73;1.20;;;16.60;99.90;;;;;;5012750;28;20766;-69
2023/09/22 01:13:31;;;;;;;3.83;0.80;;;16.60;99.90;;;;;;5012810;28;20232;-69
2023/09/22 01:15:57;;;;;;;1.60;1.30;;;16.60;99.90;;;;;;5012676;28;20180;-71
2023/09/22 01:18:23;;;;;;;1.00;0.70;;;16.50;99.90;;;;;;5013168;28;20188;-71
2023/09/22 01:20:49;;;;;;;1.23;0.90;;;16.60;99.90;;;;;;5013600;28;20454;-71
2023/09/22 01:23:14;;;;;;;2.20;1.20;;;16.60;99.90;;;;;;5014618;28;20250;-70
2023/09/22 01:25:41;;;;;;;2.00;0.90;;;16.60;99.90;;;;;;5016100;28;20168;-70
2023/09/22 01:28:08;;;;;;;2.10;1.20;;;16.70;99.90;;;;;;5016093;28;20160;-71
2023/09/22 01:30:34;;;;;;;3.03;1.10;;;16.80;99.90;;;;;;5015933;28;20441;-70
2023/09/22 01:33:03;;;;;;;2.40;0.90;;;17.00;99.90;;;;;;5016138;28;20495;-70
2023/09/22 01:35:32;;;;;;;1.77;1.10;;;17.00;99.90;;;;;;5015946;28;20404;-70
2023/09/22 01:38:18;;;;;;;1.50;1.03;;;17.00;99.90;;;;;;5016030;28;20418;-70
2023/09/22 01:40:45;;;;;;;1.53;1.00;;;17.10;99.90;;;;;;5015927;28;20391;-70
2023/09/22 01:43:11;;;;;;;1.80;1.00;;;17.10;99.90;;;;;;5015773;28;20549;-71
2023/09/22 01:45:38;;;;;;;3.27;1.30;;;17.00;99.90;;;;;;5015694;28;20465;-70
2023/09/22 01:48:04;;;;;;;1.70;1.03;;;17.10;99.90;;;;;;5015509;28;20818;-71
2023/09/22 01:50:35;;;;;;;1.87;1.00;;;17.00;99.90;;;;;;5015861;28;20410;-70
2023/09/22 01:53:01;;;;;;;0.97;0.73;;;17.00;99.90;;;;;;5016090;28;20569;-70
2023/09/22 01:55:27;;;;;;;3.63;1.03;;;17.00;99.90;;;;;;5016002;28;20407;-70
2023/09/22 01:57:53;;;;;;;1.73;1.00;;;17.00;99.90;;;;;;5015799;28;20176;-70
2023/09/22 02:00:18;;;;;;;1.10;0.97;;;16.90;99.90;;;;;;5015332;28;20426;-71
2023/09/22 02:02:45;;;;;;;3.83;0.93;;;16.80;99.90;;;;;;5015497;28;20192;-70
2023/09/22 02:05:12;;;;;;;4.90;1.30;;;16.60;99.90;;;;;;5014142;28;20179;-70
2023/09/22 02:07:38;;;;;;;1.50;1.10;;;16.70;99.90;;;;;;5015708;28;20402;-70
2023/09/22 02:10:05;;;;;;;1.70;1.00;;;16.70;99.90;;;;;;5014098;28;20952;-70
2023/09/22 02:12:31;;;;;;;1.83;0.90;;;16.70;99.90;;;;;;5015337;28;20421;-71
2023/09/22 02:14:57;;;;;;;3.23;1.00;;;16.40;99.90;;;;;;5015637;28;20410;-70
2023/09/22 02:17:23;;;;;;;1.63;0.90;;;16.40;99.90;;;;;;5015125;28;20167;-70
2023/09/22 02:19:48;;;;;;;2.03;1.00;;;16.30;99.90;;;;;;5015496;28;20955;-70
2023/09/22 02:22:14;;;;;;;1.00;0.80;;;16.30;99.90;;;;;;5014781;28;20164;-70
2023/09/22 02:24:40;;;;;;;3.47;1.10;;;16.40;99.90;;;;;;5015243;28;20585;-71
2023/09/22 02:27:06;;;;;;;4.77;1.20;;;16.20;99.90;;;;;;5014959;28;20410;-70
2023/09/22 02:29:31;;;;;;;2.30;1.10;;;16.20;99.90;;;;;;5014866;28;20196;-71
2023/09/22 02:31:57;;;;;;;3.93;0.70;;;16.30;99.90;;;;;;5015013;28;20258;-70
2023/09/22 02:34:22;;;;;;;1.50;1.10;;;16.30;99.90;;;;;;5015198;28;20263;-71
2023/09/22 02:36:48;;;;;;;3.03;1.10;;;16.30;99.90;;;;;;5015115;28;20195;-70
2023/09/22 02:39:15;;;;;;;1.60;1.10;;;16.50;99.90;;;;;;5014669;28;20195;-70
2023/09/22 02:41:41;;;;;;;1.33;1.10;;;16.40;99.90;;;;;;5014655;28;20271;-70
2023/09/22 02:44:08;;;;;;;1.20;0.80;;;16.60;99.90;;;;;;5013374;28;20583;-70
2023/09/22 02:46:37;;;;;;;2.60;1.27;;;16.70;99.90;;;;;;5014851;28;20168;-70
2023/09/22 02:49:03;;;;;;;1.40;1.20;;;16.80;99.90;;;;;;5014549;28;20552;-71
2023/09/22 02:51:29;;;;;;;2.30;0.90;;;16.80;99.90;;;;;;5014661;28;20816;-71
2023/09/22 02:53:55;;;;;;;2.00;1.00;;;16.70;99.90;;;;;;5015054;28;20184;-72
2023/09/22 02:56:21;;;;;;;3.53;1.00;;;16.60;99.90;;;;;;5013341;28;20175;-71
2023/09/22 02:58:48;;;;;;;1.50;1.00;;;16.60;99.90;;;;;;5015006;28;20492;-70
2023/09/22 03:01:14;;;;;;;1.27;0.90;;;16.80;99.90;;;;;;5013101;28;20407;-71
2023/09/22 03:03:42;;;;;;;1.40;1.00;;;16.80;99.90;;;;;;5012856;28;20451;-71
2023/09/22 03:06:11;;;;;;;2.17;1.40;;;16.90;99.90;;;;;;5014493;28;20413;-70
2023/09/22 03:08:37;;;;;;;2.40;1.00;;;16.80;99.90;;;;;;5013897;28;20427;-71
2023/09/22 03:11:03;;;;;;;1.97;1.00;;;16.80;99.90;;;;;;5014244;28;20410;-70
2023/09/22 03:13:28;;;;;;;1.80;1.07;;;16.80;99.90;;;;;;5014354;28;20414;-70
2023/09/22 03:15:54;;;;;;;3.23;1.37;;;16.80;99.90;;;;;;5014130;28;20178;-70
2023/09/22 03:18:19;;;;;;;2.80;1.20;;;16.80;99.90;;;;;;5014186;28;20191;-70
2023/09/22 03:20:46;;;;;;;1.27;1.00;;;16.80;99.90;;;;;;5013987;28;20187;-71
2023/09/22 03:23:12;;;;;;;1.87;1.23;;;16.70;99.90;;;;;;5013856;28;20569;-70
2023/09/22 03:25:39;;;;;;;2.80;1.37;;;16.70;99.90;;;;;;5013776;28;20403;-70
2023/09/22 03:28:05;;;;;;;0.90;0.70;;;16.60;99.90;;;;;;5013813;28;20403;-70
2023/09/22 03:30:31;;;;;;;1.33;1.20;;;16.60;99.90;;;;;;5013739;28;20411;-70
2023/09/22 03:32:58;;;;;;;3.33;1.03;;;16.60;99.90;;;;;;5013787;28;20472;-71
2023/09/22 03:35:25;;;;;;;1.60;0.80;;;16.70;99.90;;;;;;5014351;28;20446;-70
2023/09/22 03:37:52;;;;;;;1.13;0.80;;;16.70;99.90;;;;;;5013782;28;20419;-70
2023/09/22 03:40:30;;;;;;;1.57;1.00;;;16.50;99.90;;;;;;5013704;28;20438;-70
2023/09/22 03:42:57;;;;;;;1.40;1.10;;;16.40;99.90;;;;;;4992790;28;20444;-70
2023/09/22 03:45:23;;;;;;;1.80;0.90;;;16.50;99.90;;;;;;4994180;28;20404;-70
2023/09/22 03:47:48;;;;;;;2.67;1.50;;;16.30;99.90;;;;;;4993898;28;20411;-70
2023/09/22 03:50:14;;;;;;;2.00;0.90;;;16.40;99.90;;;;;;4993739;28;20588;-71
2023/09/22 03:52:41;;;;;;;1.77;0.83;;;16.30;99.90;;;;;;5012176;28;20172;-71
2023/09/22 03:55:07;;;;;;;1.30;1.00;;;16.30;99.90;;;;;;5013527;28;20440;-70
2023/09/22 03:57:33;;;;;;;1.37;0.90;;;16.40;99.90;;;;;;5013709;28;20505;-70
2023/09/22 03:59:58;;;;;;;2.60;1.10;;;16.40;99.90;;;;;;5013883;28;20508;-71
2023/09/22 04:02:27;;;;;;;1.77;1.00;;;16.50;99.90;;;;;;5013444;28;20526;-70
2023/09/22 04:04:54;;;;;;;2.40;1.30;;;16.60;99.90;;;;;;5013439;28;20163;-71
2023/09/22 04:07:19;;;;;;;1.53;1.10;;;16.60;99.90;;;;;;5013553;28;20415;-71
2023/09/22 04:09:45;;;;;;;1.30;1.20;;;16.70;99.90;;;;;;5013276;28;20438;-71
2023/09/22 04:12:11;;;;;;;1.50;0.90;;;16.60;99.90;;;;;;5013138;28;20465;-71
2023/09/22 04:14:37;;;;;;;2.97;1.07;;;16.80;99.90;;;;;;5013299;28;20164;-71
2023/09/22 04:17:03;;;;;;;2.70;1.20;;;16.80;99.90;;;;;;5013060;28;20414;-71
2023/09/22 04:19:33;;;;;;;1.60;1.30;;;16.90;99.90;;;;;;5011869;28;20223;-70
2023/09/22 04:22:01;;;;;;;1.27;1.10;;;16.80;99.90;;;;;;5011915;28;20226;-71
2023/09/22 04:24:32;;;;;;;2.37;1.37;;;16.70;99.90;;;;;;5013006;28;20454;-71
2023/09/22 04:27:02;;;;;;;2.20;1.30;;;16.70;99.90;;;;;;5013274;28;20395;-71
2023/09/22 04:29:27;;;;;;;2.00;0.97;;;16.70;99.90;;;;;;5013308;28;20434;-70
2023/09/22 04:31:53;;;;;;;1.43;1.10;;;16.80;99.90;;;;;;5013249;28;20413;-71
2023/09/22 04:34:19;;;;;;;1.50;1.03;;;16.70;99.90;;;;;;5013451;28;20543;-70
2023/09/22 04:36:46;;;;;;;2.07;1.30;;;16.70;99.90;;;;;;5013875;28;20413;-71
2023/09/22 04:39:14;;;;;;;2.00;1.20;;;16.80;99.90;;;;;;5016385;28;20431;-71
2023/09/22 04:41:40;;;;;;;1.30;1.00;;;16.80;99.90;;;;;;5011870;28;20414;-71
2023/09/22 04:44:06;;;;;;;1.40;0.80;;;16.90;99.90;;;;;;5013122;28;20460;-71
2023/09/22 04:46:32;;;;;;;3.43;1.10;;;17.00;99.90;;;;;;5013348;28;20407;-71
2023/09/22 04:48:58;;;;;;;1.57;0.90;;;17.00;99.90;;;;;;5031946;22;20478;-72
2023/09/22 04:51:26;;;;;;;2.57;0.77;;;16.90;99.90;;;;;;4993357;28;20392;-70
2023/09/22 04:53:52;;;;;;;1.33;0.90;;;16.80;99.90;;;;;;4993313;28;20265;-71
2023/09/22 04:56:18;;;;;;;1.47;1.10;;;16.90;99.90;;;;;;4993509;28;20513;-71
2023/09/22 04:58:44;;;;;;;2.57;0.90;;;17.00;99.90;;;;;;4996040;28;20710;-70
2023/09/22 05:01:10;;;;;;;1.10;0.90;;;17.00;99.90;;;;;;4996966;28;20176;-72
2023/09/22 05:03:35;;;;;;;1.47;1.07;;;17.00;99.90;;;;;;4997295;28;20872;-72
2023/09/22 05:06:06;;;;;;;1.17;0.90;;;17.00;99.90;;;;;;4996285;28;20254;-71
2023/09/22 05:08:32;;;;;;;2.13;1.13;;;17.00;99.90;;;;;;4996874;28;20164;-70
2023/09/22 05:10:57;;;;;;;2.30;1.07;;;16.90;99.90;;;;;;4997151;28;20918;-71
2023/09/22 05:13:23;;;;;;;2.47;1.40;;;16.90;99.90;;;;;;4997410;28;20246;-70
2023/09/22 05:15:48;;;;;;;1.63;1.33;;;16.80;99.90;;;;;;4996447;28;20222;-70
2023/09/22 05:18:15;;;;;;;3.57;1.83;;;16.50;99.90;;;;;;4996464;28;20176;-71
2023/09/22 05:20:41;;;;;;;2.30;1.20;;;16.20;99.90;;;;;;4996334;28;20200;-71
2023/09/22 05:23:10;;;;;;;2.87;1.10;;;16.30;99.90;;;;;;4996335;28;20526;-69
2023/09/22 05:25:40;;;;;;;4.50;1.70;;;16.40;99.90;;;;;;4996736;28;20420;-71
2023/09/22 05:28:08;;;;;;;2.90;1.40;;;16.30;99.90;;;;;;4996224;28;20464;-71
2023/09/22 05:30:36;;;;;;;2.50;1.50;;;16.10;99.90;;;;;;4996477;28;20422;-70
2023/09/22 05:33:06;;;;;;;2.33;1.60;;;16.00;99.90;;;;;;4977125;28;20419;-70
2023/09/22 05:35:32;;;;;;;1.40;1.30;;;15.90;99.90;;;;;;4977290;28;20767;-70
2023/09/22 05:37:58;;;;;;;2.00;1.57;;;15.80;99.90;;;;;;4977028;28;20405;-70
2023/09/22 05:40:26;;;;;;;2.17;1.50;;;15.80;99.90;;;;;;4976972;28;20440;-70
2023/09/22 05:42:51;;;;;;;2.30;1.60;;;15.70;99.90;;;;;;4994261;28;20500;-70
2023/09/22 05:45:16;;;;;;;4.00;1.40;;;15.80;99.90;;;;;;4995856;28;20423;-71
2023/09/22 05:47:42;;;;;;;2.70;1.07;;;16.00;99.90;;;;;;4995786;28;20253;-70
2023/09/22 05:50:10;;;;;;;2.37;1.40;;;16.00;99.90;;;;;;4995687;28;20617;-71
2023/09/22 05:52:37;;;;;;;4.13;1.50;;;16.00;99.90;;;;;;4995611;28;20204;-70
2023/09/22 05:55:04;;;;;;;1.07;0.90;;;16.10;99.90;;;;;;4995499;28;20414;-71
2023/09/22 05:57:29;;;;;;;2.10;1.30;;;16.20;99.90;;;;;;4994248;28;20461;-70
2023/09/22 05:59:57;;;;;;;2.33;1.20;;;16.20;99.90;;;;;;4995274;28;20438;-71
2023/09/22 06:02:23;;;;;;;2.80;0.90;;;16.20;99.90;;;;;;4995119;28;20176;-71
2023/09/22 06:04:48;;;;;;;4.30;1.50;;;16.20;99.90;;;;;;4995741;28;20411;-71
2023/09/22 06:07:14;;;;;;;14.60;10.43;;;16.30;99.90;;;;;;4995438;28;20244;-70
2023/09/22 06:09:40;;;;;;;1.77;1.23;;;16.40;99.90;;;;;;4994728;28;20216;-71
2023/09/22 06:12:06;;;;;;;2.07;1.33;;;16.40;99.90;;;;;;4995595;28;20259;-71
2023/09/22 06:14:31;;;;;;;6.90;1.37;;;16.40;99.90;;;;;;4995918;28;20184;-71
2023/09/22 06:16:57;;;;;;;3.00;1.20;;;16.50;99.90;;;;;;4995128;28;20404;-71
2023/09/22 06:19:23;;;;;;;2.93;1.67;;;16.70;99.90;;;;;;4995080;28;20279;-70
2023/09/22 06:21:48;;;;;;;2.00;1.07;;;16.80;99.90;;;;;;4995153;28;20219;-69
2023/09/22 06:24:14;;;;;;;1.40;1.10;;;16.70;99.90;;;;;;4995346;28;20339;-71
2023/09/22 06:26:40;;;;;;;2.10;1.10;;;16.90;99.90;;;;;;4995251;28;20200;-70
2023/09/22 06:29:06;;;;;;;3.10;1.70;;;17.00;99.90;;;;;;4995131;28;20200;-71
2023/09/22 06:31:32;;;;;;;2.13;1.20;;;16.90;99.90;;;;;;4995071;28;20415;-71
2023/09/22 06:33:59;;;;;;;3.63;1.23;;;16.80;99.90;;;;;;4994850;28;20172;-70
2023/09/22 06:36:24;;;;;;;2.37;1.30;;;16.70;99.90;;;;;;4994261;28;20422;-70
2023/09/22 06:38:50;;;;;;;2.90;1.50;;;16.80;99.90;;;;;;4994657;28;20436;-69
2023/09/22 06:41:18;;;;;;;3.13;1.10;;;16.90;99.90;;;;;;4994816;28;20186;-71
2023/09/22 06:43:44;;;;;;;2.07;1.00;;;16.90;99.90;;;;;;4995256;28;20197;-70
2023/09/22 06:46:10;;;;;;;2.03;1.30;;;16.90;99.90;;;;;;4995296;28;20423;-71
2023/09/22 06:48:36;;;;;;;2.90;1.03;;;17.00;99.90;;;;;;4994794;28;20846;-71
2023/09/22 06:51:02;;;;;;;2.57;1.30;;;17.10;99.90;;;;;;4994849;28;20141;-72
2023/09/22 06:53:29;;;;;;;3.63;1.10;;;17.10;99.90;;;;;;4994873;28;20414;-72
2023/09/22 06:56:08;;;;;;;2.80;1.10;;;17.20;99.90;;;;;;4994336;28;20419;-72
2023/09/22 06:58:40;;;;;;;2.53;1.30;;;17.20;99.90;;;;;;4994714;28;20515;-71
2023/09/22 07:01:15;;;;;;;3.47;1.27;;;17.30;99.90;;;;;;4993093;28;20416;-70
2023/09/22 07:03:42;;;;;;;1.60;1.03;;;17.40;99.90;;;;;;4994412;28;20522;-70
2023/09/22 07:06:08;;;;;;;1.97;1.00;;;17.40;99.90;;;;;;4994656;28;20696;-70
2023/09/22 07:08:34;;;;;;;3.53;1.20;;;17.40;99.90;;;;;;4993636;28;20892;-72
2023/09/22 07:11:05;;;;;;;2.73;1.00;;;17.20;99.90;;;;;;4993697;28;20515;-71
2023/09/22 07:13:31;;;;;;;2.03;1.33;;;17.20;99.90;;;;;;4994338;28;20454;-71
2023/09/22 07:15:57;;;;;;;3.10;1.10;;;17.30;99.90;;;;;;4992930;28;20953;-71
2023/09/22 07:18:24;;;;;;;1.20;1.10;;;17.40;99.90;;;;;;4994167;28;20762;-70
2023/09/22 07:20:50;;;;;;;3.67;1.10;;;17.40;99.90;;;;;;4993161;28;20415;-71
2023/09/22 07:23:16;;;;;;;1.67;1.17;;;17.40;99.90;;;;;;4994323;28;20439;-71
2023/09/22 07:25:41;;;;;;;1.60;1.00;;;17.60;99.90;;;;;;4994197;28;20212;-71
2023/09/22 07:28:08;;;;;;;1.20;0.83;;;17.70;99.90;;;;;;4994132;28;20173;-72
2023/09/22 07:30:34;;;;;;;3.30;1.30;;;17.80;99.90;;;;;;4994175;28;20287;-72
2023/09/22 07:33:00;;;;;;;2.30;1.17;;;17.90;99.90;;;;;;4994248;28;20502;-71
2023/09/22 07:35:26;;;;;;;2.60;1.07;;;17.90;99.90;;;;;;4992965;28;20419;-71
2023/09/22 07:37:51;;;;;;;3.83;1.10;;;17.90;99.90;;;;;;4993795;28;20408;-71
2023/09/22 07:40:17;;;;;;;2.50;1.30;;;18.00;99.90;;;;;;4993809;28;20189;-72
2023/09/22 07:42:44;;;;;;;1.60;1.20;;;18.00;99.90;;;;;;4993664;28;20203;-71
2023/09/22 07:45:10;;;;;;;1.63;0.80;;;18.00;99.90;;;;;;4994207;28;20161;-71
2023/09/22 07:47:37;;;;;;;5.07;1.27;;;17.90;99.90;;;;;;4993599;28;20447;-71
2023/09/22 07:50:04;;;;;;;1.50;1.13;;;18.00;99.90;;;;;;4993362;28;20889;-71
2023/09/22 07:52:30;;;;;;;1.70;1.03;;;17.90;99.90;;;;;;4993735;28;20412;-70
2023/09/22 07:54:56;;;;;;;2.47;1.23;;;17.80;99.90;;;;;;4993557;28;20770;-70
2023/09/22 07:57:22;;;;;;;1.70;1.00;;;17.90;99.90;;;;;;4993704;28;20169;-69
2023/09/22 07:59:48;;;;;;;1.80;1.00;;;18.00;99.90;;;;;;4993959;28;20424;-70
2023/09/22 08:02:17;;;;;;;1.77;1.20;;;18.00;99.90;;;;;;4993657;28;21063;-70
2023/09/22 08:04:43;;;;;;;2.50;1.47;;;18.10;99.90;;;;;;4994105;28;20250;-70
2023/09/22 08:07:08;;;;;;;2.90;1.63;;;17.70;99.90;;;;;;4993319;28;20404;-70
2023/09/22 08:09:34;;;;;;;1.87;1.30;;;17.70;99.90;;;;;;4993539;28;20443;-71
2023/09/22 08:11:59;;;;;;;2.10;1.43;;;17.50;99.90;;;;;;4993712;28;20172;-71
2023/09/22 08:14:26;;;;;;;3.77;1.53;;;17.40;99.90;;;;;;4993706;28;20172;-71
2023/09/22 08:16:51;;;;;;;2.17;1.67;;;17.40;99.90;;;;;;4993500;28;20165;-71
2023/09/22 08:19:17;;;;;;;2.57;1.50;;;17.30;99.90;;;;;;4993456;28;20427;-71
2023/09/22 08:21:44;;;;;;;2.97;1.47;;;17.40;99.90;;;;;;4993258;28;20172;-71
2023/09/22 08:24:11;;;;;;;2.33;1.10;;;17.70;99.90;;;;;;4991618;28;20447;-71
2023/09/22 08:26:36;;;;;;;3.70;1.37;;;17.90;99.90;;;;;;4993279;28;20415;-70
2023/09/22 08:29:04;;;;;;;4.60;1.40;;;18.30;99.90;;;;;;4993063;28;20434;-70
2023/09/22 08:31:30;;;;;;;5.87;1.50;;;18.60;99.90;;;;;;4994289;28;20509;-70
2023/09/22 08:33:56;;;;;;;1.80;1.37;;;18.90;99.90;;;;;;4996997;28;20415;-70
2023/09/22 08:36:22;;;;;;;1.80;1.23;;;18.90;99.90;;;;;;4996004;28;20404;-69
2023/09/22 08:38:47;;;;;;;1.30;1.13;;;18.90;99.90;;;;;;5005608;28;20274;-71
2023/09/22 08:41:13;;;;;;;1.67;0.90;;;19.00;99.90;;;;;;5014405;28;20179;-70
2023/09/22 08:43:40;;;;;;;3.03;1.10;;;19.00;99.90;;;;;;4996546;28;20203;-70
2023/09/22 08:46:06;;;;;;;1.40;1.17;;;18.80;99.90;;;;;;4997355;28;20533;-70
2023/09/22 08:48:31;;;;;;;2.53;1.23;;;18.70;99.90;;;;;;4997066;28;20408;-71
2023/09/22 08:50:57;;;;;;;2.30;1.10;;;18.70;99.90;;;;;;4997170;28;20474;-70
2023/09/22 08:53:23;;;;;;;1.20;0.90;;;18.80;99.90;;;;;;4977872;28;20184;-69
2023/09/22 08:55:51;;;;;;;1.70;1.07;;;18.80;99.90;;;;;;4975920;28;20409;-70
2023/09/22 08:58:18;;;;;;;2.07;1.37;;;19.10;99.90;;;;;;4977849;28;20177;-71
2023/09/22 09:00:47;;;;;;;1.30;0.97;;;19.20;99.90;;;;;;4976039;28;20499;-70
2023/09/22 09:03:13;;;;;;;1.93;1.03;;;19.30;99.90;;;;;;4995757;28;20451;-70
2023/09/22 09:05:39;;;;;;;1.37;1.00;;;19.40;99.90;;;;;;4996411;28;20439;-70
2023/09/22 09:08:20;;;;;;;1.90;0.90;;;19.60;99.90;;;;;;4997761;28;20443;-70
2023/09/22 09:10:48;;;;;;;2.47;1.33;;;19.80;99.90;;;;;;4996729;28;20184;-71
2023/09/22 09:13:18;;;;;;;1.30;1.00;;;19.60;99.90;;;;;;4996450;28;20416;-70
2023/09/22 09:15:53;;;;;;;1.00;0.80;;;19.50;99.90;;;;;;4996390;28;20410;-71
2023/09/22 09:18:21;;;;;;;3.40;1.23;;;19.30;99.90;;;;;;4996720;28;20407;-71
2023/09/22 09:21:04;;;;;;;2.33;1.13;;;19.30;99.90;;;;;;4996697;28;20841;-71
2023/09/22 09:23:29;;;;;;;1.70;1.30;;;19.40;99.90;;;;;;4977096;28;20447;-70
2023/09/22 09:25:55;;;;;;;1.80;1.10;;;19.40;99.90;;;;;;4976830;28;20408;-71
2023/09/22 09:28:22;;;;;;;1.50;0.90;;;19.30;99.90;;;;;;4976796;28;20166;-70
2023/09/22 09:30:51;;;;;;;1.40;0.83;;;19.20;99.90;;;;;;4976702;28;20165;-70
2023/09/22 09:33:19;;;;;;;1.27;0.83;;;18.90;99.90;;;;;;4994792;28;20932;-71
2023/09/22 09:35:45;;;;;;;2.33;1.27;;;18.70;99.90;;;;;;4996063;28;20414;-71
2023/09/22 09:38:12;;;;;;;1.33;1.10;;;18.70;99.90;;;;;;4996235;28;20412;-71
2023/09/22 09:40:38;;;;;;;2.20;1.03;;;18.90;99.90;;;;;;4996201;28;20196;-71
2023/09/22 09:43:10;;;;;;;1.73;0.90;;;19.00;99.90;;;;;;4995222;28;20454;-70
2023/09/22 09:45:41;;;;;;;1.20;0.90;;;19.10;99.90;;;;;;4996150;28;20300;-70
2023/09/22 09:48:09;;;;;;;2.47;1.03;;;19.20;99.90;;;;;;4996177;28;20389;-70
2023/09/22 09:50:36;;;;;;;1.83;1.00;;;19.10;99.90;;;;;;4995926;28;20439;-70
2023/09/22 09:53:11;;;;;;;2.17;1.10;;;19.30;99.90;;;;;;4996163;28;20458;-70
2023/09/22 09:55:37;;;;;;;1.80;1.00;;;19.40;99.90;;;;;;4996110;28;20901;-70
2023/09/22 09:58:04;;;;;;;2.40;0.90;;;19.60;99.90;;;;;;4995252;28;20450;-71
2023/09/22 10:00:29;;;;;;;1.47;1.13;;;19.50;99.90;;;;;;4995697;28;20864;-71
2023/09/22 10:02:58;;;;;;;1.80;1.20;;;19.70;99.90;;;;;;4995507;28;20538;-71
2023/09/22 10:05:24;;;;;;;2.23;0.80;;;19.50;99.90;;;;;;4995915;28;20593;-70
2023/09/22 10:07:50;;;;;;;1.73;1.00;;;19.30;99.90;;;;;;4995956;28;20542;-71
2023/09/22 10:10:20;;;;;;;3.37;0.90;;;19.50;99.90;;;;;;4995784;28;20204;-71
2023/09/22 10:12:46;;;;;;;1.80;1.10;;;19.40;99.90;;;;;;4995325;28;20404;-69
2023/09/22 10:15:12;;;;;;;1.73;0.90;;;19.30;99.90;;;;;;4995436;28;20408;-70
2023/09/22 10:17:38;;;;;;;2.20;1.03;;;19.50;99.90;;;;;;4995419;28;20491;-70
2023/09/22 10:20:12;;;;;;;1.50;1.00;;;19.30;99.90;;;;;;4995036;28;20204;-70
2023/09/22 10:22:38;;;;;;;1.70;1.00;;;19.60;99.90;;;;;;4995025;28;20172;-70
2023/09/22 10:25:13;;;;;;;1.93;0.77;;;19.70;99.90;;;;;;4995239;28;20526;-69
2023/09/22 10:28:01;;;;;;;4.33;1.10;;;19.80;99.90;;;;;;4995437;28;20395;-69
2023/09/22 10:30:44;;;;;;;3.47;1.17;;;19.50;99.90;;;;;;4995300;28;20419;-69
2023/09/22 10:33:32;;;;;;;1.40;0.80;;;19.60;99.90;;;;;;4994904;28;20922;-70
2023/09/22 10:35:58;;;;;;;4.97;1.00;;;19.70;99.90;;;;;;4994965;28;20388;-70
2023/09/22 10:38:25;;;;;;;4.47;0.73;;;20.10;99.90;;;;;;4994859;28;20404;-69
2023/09/22 10:41:03;;;;;;;1.30;0.83;;;20.70;99.90;;;;;;4995638;28;20411;-70
2023/09/22 10:43:32;;;;;;;1.73;1.00;;;21.40;99.90;;;;;;4994586;28;20534;-70
2023/09/22 10:45:59;;;;;;;2.10;0.80;;;22.70;99.90;;;;;;4994751;28;20470;-70
2023/09/22 10:48:31;;;;;;;2.10;0.87;;;23.40;99.90;;;;;;4994426;28;20434;-71
2023/09/22 10:50:57;;;;;;;1.70;0.70;;;23.30;99.90;;;;;;5036562;23;20495;-69
2023/09/22 10:53:22;;;;;;;2.73;0.97;;;23.40;99.90;;;;;;5014821;28;20457;-69
2023/09/22 10:55:48;;;;;;;1.87;1.00;;;23.20;99.90;;;;;;5014313;28;20175;-69
2023/09/22 10:58:16;;;;;;;0.90;0.70;;;22.60;99.90;;;;;;5014893;28;20164;-68
2023/09/22 11:00:55;;;;;;;1.93;0.87;;;22.30;99.90;;;;;;5014871;28;20806;-69
2023/09/22 11:03:21;;;;;;;2.03;1.00;;;21.90;99.90;;;;;;5013632;28;20937;-71
2023/09/22 11:05:57;;;;;;;3.00;0.90;;;22.60;99.90;;;;;;5014981;28;20399;-71
2023/09/22 11:08:23;;;;;;;3.17;0.77;;;23.00;99.90;;;;;;5014560;28;20229;-70
2023/09/22 11:10:51;;;;;;;2.10;0.73;;;23.00;99.90;;;;;;5014189;28;20514;-71
2023/09/22 11:13:18;;;;;;;1.23;0.70;;;23.80;99.90;;;;;;5014492;28;20176;-70
2023/09/22 11:15:51;;;;;;;1.07;0.60;;;23.10;99.90;;;;;;5021902;28;20485;-70
2023/09/22 11:18:22;;;;;;;1.50;1.00;;;22.10;99.90;;;;;;4993471;28;20422;-71
2023/09/22 11:20:48;;;;;;;1.63;0.90;;;22.00;99.90;;;;;;4993255;28;20428;-70
2023/09/22 11:23:15;;;;;;;1.73;0.70;;;21.70;99.90;;;;;;4994913;28;20896;-70
2023/09/22 11:25:40;;;;;;;1.37;0.77;;;21.30;99.90;;;;;;5012581;28;20403;-71
2023/09/22 11:28:06;;;;;;;1.63;0.87;;;21.20;99.90;;;;;;5014911;28;20464;-70
2023/09/22 11:30:33;;;;;;;1.60;0.80;;;21.20;99.90;;;;;;5014992;28;20625;-70
2023/09/22 11:32:59;;;;;;;1.17;0.80;;;21.30;99.90;;;;;;5014958;28;20659;-70
2023/09/22 11:35:37;;;;;;;1.53;0.80;;;21.60;99.90;;;;;;5014836;28;20415;-70
2023/09/22 11:38:31;;;;;;;1.33;0.70;;;21.80;99.90;;;;;;5015759;28;20828;-70
2023/09/22 11:41:04;;;;;;;1.27;0.80;;;21.70;99.90;;;;;;5015047;28;20430;-70
2023/09/22 11:43:31;;;;;;;2.87;0.67;;;22.00;99.90;;;;;;5016432;28;20431;-70
2023/09/22 11:46:21;;;;;;;1.83;0.80;;;22.90;99.90;;;;;;5018078;28;20404;-69
2023/09/22 11:49:04;;;;;;;2.53;0.90;;;24.40;99.90;;;;;;5017634;28;20391;-70
2023/09/22 11:52:03;;;;;;;0.80;0.50;;;25.50;98.10;;;;;;5015145;28;20400;-70
2023/09/22 11:54:30;;;;;;;1.10;0.80;;;24.80;97.80;;;;;;5002760;28;20438;-70
2023/09/22 11:56:58;;;;;;;1.23;0.63;;;25.40;97.30;;;;;;5017175;28;20427;-70
2023/09/22 11:59:31;;;;;;;1.23;0.73;;;26.00;95.10;;;;;;5017266;28;20422;-70
2023/09/22 12:01:57;;;;;;;1.53;0.80;;;26.00;93.60;;;;;;5015053;28;20391;-71
2023/09/22 12:04:23;;;;;;;1.07;0.77;;;26.30;92.60;;;;;;5014834;28;20446;-70
2023/09/22 12:06:50;;;;;;;1.57;0.80;;;26.60;92.60;;;;;;5015300;28;20407;-70
2023/09/22 12:09:16;;;;;;;1.37;0.70;;;27.50;91.40;;;;;;5025937;28;20184;-70
2023/09/22 12:11:43;;;;;;;2.10;1.00;;;28.70;89.20;;;;;;5033582;28;20410;-69
2023/09/22 12:14:12;;;;;;;2.73;1.10;;;28.00;85.70;;;;;;5032052;28;20414;-70
2023/09/22 12:16:38;;;;;;;1.57;0.80;;;27.40;87.30;;;;;;5034405;28;20894;-70
2023/09/22 12:19:04;;;;;;;1.50;0.80;;;27.40;87.20;;;;;;5033408;28;20414;-70
2023/09/22 12:21:31;;;;;;;1.57;0.90;;;26.40;91.40;;;;;;5033970;28;20511;-71
2023/09/22 12:23:57;;;;;;;2.60;1.67;;;26.30;90.70;;;;;;5033459;28;20255;-69
2023/09/22 12:26:23;;;;;;;1.53;0.80;;;25.60;91.10;;;;;;5030623;28;20411;-71
2023/09/22 12:28:49;;;;;;;2.20;1.17;;;25.00;91.20;;;;;;5030183;28;20235;-71
2023/09/22 12:31:18;;;;;;;1.77;1.27;;;25.10;92.00;;;;;;5031121;28;20411;-70
2023/09/22 12:33:45;;;;;;;2.27;1.00;;;24.00;93.00;;;;;;5030126;28;20178;-71
2023/09/22 12:36:15;;;;;;;1.37;0.87;;;23.80;94.10;;;;;;5016490;28;20442;-70
2023/09/22 12:38:41;;;;;;;3.37;1.00;;;23.40;93.30;;;;;;4996620;28;20865;-72
2023/09/22 12:41:06;;;;;;;1.10;0.63;;;23.40;94.00;;;;;;5015004;28;20435;-72
2023/09/22 12:43:32;;;;;;;1.70;1.10;;;25.00;93.60;;;;;;5016854;28;20952;-72
2023/09/22 12:45:58;;;;;;;1.87;0.80;;;26.20;92.30;;;;;;5016127;28;20183;-71
2023/09/22 12:48:23;;;;;;;2.53;1.10;;;27.40;89.90;;;;;;5015903;28;20176;-71